KTOR

Details ICAO KTOR
Name TORRINGTON MUNI
Region United States
Timezone America/Denver (UTC-6.0)
Plans Departing 4
Arriving 7
Stats Elevation 4,205 ft / 1,282 m (AMSL)
Location 42.064863° -104.151895°
Runways 2
Magnetic Variation 7.903° E
Sunrise 2018-05-24 11:29:33 UTC / 2018-05-24 05:29:33 Local
Sunset 2018-05-25 02:20:16 UTC / 2018-05-24 20:20:16 Local
Advertisement - Login to hide

Runways

ID Width Length Bearing (true) Bearing (mag) Surface Threshold Offset Overrun Length
02 59 ft / 18 m 3,004 ft / 916 m 28.43° 20.53° Asphalt 0 ft / 0 m 0 ft / 0 m
10 75 ft / 23 m 5,688 ft / 1,734 m 115.59° 107.69° Asphalt 0 ft / 0 m 0 ft / 0 m
20 59 ft / 18 m 3,004 ft / 916 m 208.44° 200.54° Asphalt 0 ft / 0 m 0 ft / 0 m
28 75 ft / 23 m 5,688 ft / 1,734 m 295.61° 287.71° Asphalt 0 ft / 0 m 0 ft / 0 m

Map

Weather


0- 5 10 15 20 25 30 35+ Temperature / ° C

Clouds and Precipitation
Forecast for 2018-05-24 12:00 UTC. Updated 3 hours ago

Ground ~20,000 ft ~40,000 ft Winds

METAR

KTOR 241353Z AUTO 00000KT 10SM CLR 13/11 A3005 RMK AO2 SLP149 T01330111

TAF

Not found

Frequencies

Recorded 118.37 MHz ASOS
Unicom 122.80 MHz CTAF/UNICOM
Warning: Do not use this data for real-world aviation or navigation. No guarantee of current accuracy is given.